Time;durP1;ratioP1;P1;durP2;ratioP2;P2;SDS_P1;SDS_P2;PMS_P1;PMS_P2;Temp;Humidity;BMP_temperature;BMP_pressure;BME280_temperature;BME280_humidity;BME280_pressure;Samples;Min_cycle;Max_cycle;Signal;HPM_P1;HPM_P2
2023/03/20 00:01:58;;;;;;;16.80;13.00;;;;;;;10.98;92.79;100960.27;108655;1258;59318;-68
2023/03/20 00:04:25;;;;;;;19.70;14.40;;;;;;;10.96;93.08;100957.19;108655;1260;73676;-69
2023/03/20 00:06:51;;;;;;;19.60;14.30;;;;;;;10.94;93.23;100962.89;108630;1258;69731;-69
2023/03/20 00:09:18;;;;;;;18.30;13.70;;;;;;;10.94;93.35;100965.59;108645;1258;58874;-68
2023/03/20 00:11:48;;;;;;;19.80;14.00;;;;;;;10.90;93.74;100963.69;108755;1258;62036;-68
2023/03/20 00:14:18;;;;;;;19.30;14.60;;;;;;;10.92;93.52;100961.78;108688;1260;59458;-69
2023/03/20 00:16:47;;;;;;;20.00;14.80;;;;;;;10.93;93.59;100957.57;108632;1259;72440;-68
2023/03/20 00:19:17;;;;;;;18.90;14.70;;;;;;;10.94;93.60;100960.41;108708;1259;69740;-68
2023/03/20 00:21:46;;;;;;;21.10;15.60;;;;;;;10.92;94.06;100962.32;108652;1260;73919;-69
2023/03/20 00:24:15;;;;;;;22.00;16.90;;;;;;;10.91;94.29;100964.74;108640;1260;61779;-68
2023/03/20 00:26:43;;;;;;;23.90;17.90;;;;;;;10.89;94.51;100967.40;108583;1263;58975;-69
2023/03/20 00:29:29;;;;;;;20.00;16.30;;;;;;;10.85;94.69;100967.45;108774;1258;73671;-68
2023/03/20 00:31:57;;;;;;;22.60;16.10;;;;;;;10.81;94.74;100965.60;108639;1259;70880;-69
2023/03/20 00:34:27;;;;;;;21.60;15.10;;;;;;;10.79;94.13;100969.05;108681;1260;71179;-69
2023/03/20 00:36:58;;;;;;;23.30;17.40;;;;;;;10.71;93.60;100973.81;108669;1260;62129;-68
2023/03/20 00:39:26;;;;;;;26.70;16.80;;;;;;;10.62;93.33;100982.42;108654;1261;59460;-69
2023/03/20 00:42:00;;;;;;;30.40;20.40;;;;;;;10.51;93.44;100985.85;108664;1258;73523;-68
2023/03/20 00:44:33;;;;;;;31.70;21.00;;;;;;;10.43;93.71;100992.28;108774;1258;68787;-69
2023/03/20 00:47:17;;;;;;;36.90;23.30;;;;;;;10.36;94.01;100995.48;108653;1262;71276;-68
2023/03/20 00:49:46;;;;;;;38.40;24.00;;;;;;;10.28;94.45;100992.53;108724;1260;62125;-68
2023/03/20 00:52:14;;;;;;;39.90;24.40;;;;;;;10.25;94.48;100991.37;108766;1261;59489;-68
2023/03/20 00:54:41;;;;;;;42.90;25.30;;;;;;;10.19;94.76;100989.20;108691;1260;74573;-68
2023/03/20 00:57:13;;;;;;;43.80;25.70;;;;;;;10.17;94.87;100986.82;108770;1261;70109;-68
2023/03/20 00:59:57;;;;;;;42.30;25.90;;;;;;;10.15;94.88;100983.46;108755;1260;71514;-69
2023/03/20 01:02:28;;;;;;;43.00;25.70;;;;;;;10.10;95.54;100989.02;108643;1261;61799;-68
2023/03/20 01:04:56;;;;;;;41.50;24.60;;;;;;;10.04;96.07;100989.30;108614;1258;60396;-68
2023/03/20 01:07:23;;;;;;;38.80;23.60;;;;;;;9.98;96.50;100989.98;108660;1259;73221;-69
2023/03/20 01:09:49;;;;;;;44.30;27.00;;;;;;;9.93;97.07;100988.18;108629;1259;71506;-68
2023/03/20 01:12:16;;;;;;;44.30;27.20;;;;;;;9.91;97.11;100987.85;108672;1259;71480;-69
2023/03/20 01:14:43;;;;;;;41.20;25.10;;;;;;;9.92;96.87;100989.83;108753;1258;60624;-69
2023/03/20 01:17:17;;;;;;;36.60;24.20;;;;;;;9.90;97.30;100992.72;108682;1261;58968;-69
2023/03/20 01:19:44;;;;;;;39.70;25.60;;;;;;;9.88;97.33;100992.41;108735;1259;74636;-69
2023/03/20 01:22:13;;;;;;;32.40;22.00;;;;;;;9.79;98.69;100994.98;108617;1258;70997;-68
2023/03/20 01:24:39;;;;;;;38.30;25.30;;;;;;;9.73;99.14;100993.31;108706;1258;72675;-69
2023/03/20 01:27:17;;;;;;;35.00;23.60;;;;;;;9.70;99.36;100990.79;108651;1258;59804;-68
2023/03/20 01:29:45;;;;;;;35.20;23.70;;;;;;;9.69;99.37;100994.04;108781;1258;59281;-69
2023/03/20 01:32:15;;;;;;;37.60;23.00;;;;;;;9.69;99.23;100988.99;108775;1260;73883;-68
2023/03/20 01:34:43;;;;;;;37.30;22.80;;;;;;;9.70;99.00;100987.91;108621;1258;70066;-69
2023/03/20 01:37:21;;;;;;;38.30;23.60;;;;;;;9.73;98.91;100994.91;108653;1262;73166;-69
2023/03/20 01:39:47;;;;;;;38.70;22.40;;;;;;;9.70;99.32;100994.49;108559;1259;62202;-69
2023/03/20 01:42:15;;;;;;;36.40;22.40;;;;;;;9.68;99.37;100994.02;108765;1258;59032;-69
2023/03/20 01:44:45;;;;;;;35.40;21.30;;;;;;;9.67;99.57;100999.98;108666;1259;74485;-69
2023/03/20 01:47:18;;;;;;;39.10;22.20;;;;;;;9.64;99.81;101001.46;108784;1258;70985;-69
2023/03/20 01:50:09;;;;;;;38.60;22.60;;;;;;;9.62;99.94;101004.17;108734;1259;71756;-69
2023/03/20 01:52:35;;;;;;;47.30;24.90;;;;;;;9.61;100.00;101004.83;108643;1258;60003;-69
2023/03/20 01:55:02;;;;;;;42.00;23.00;;;;;;;9.60;100.00;101001.52;108772;1260;60200;-69
2023/03/20 01:57:29;;;;;;;44.00;24.30;;;;;;;9.56;100.00;101006.55;108668;1260;73474;-68
2023/03/20 02:00:05;;;;;;;45.10;23.60;;;;;;;9.53;100.00;101010.38;108578;1261;71301;-69
2023/03/20 02:02:32;;;;;;;52.70;28.00;;;;;;;9.50;100.00;101009.52;108719;1263;72526;-69
2023/03/20 02:05:03;;;;;;;47.50;23.70;;;;;;;9.46;100.00;101009.95;108758;1261;60928;-68
2023/03/20 02:07:32;;;;;;;43.80;23.70;;;;;;;9.40;100.00;101014.03;108780;1260;59165;-68
2023/03/20 02:09:58;;;;;;;45.70;26.30;;;;;;;9.38;100.00;101014.81;108613;1259;75866;-68
2023/03/20 02:12:25;;;;;;;47.50;25.70;;;;;;;9.35;100.00;101023.85;108692;1258;70321;-68
2023/03/20 02:14:52;;;;;;;40.90;22.90;;;;;;;9.32;100.00;101026.33;108673;1259;73025;-69
2023/03/20 02:17:22;;;;;;;40.10;22.50;;;;;;;9.28;100.00;101037.77;108695;1261;60193;-68
2023/03/20 02:20:14;;;;;;;42.30;23.50;;;;;;;9.23;100.00;101038.05;108762;1260;59378;-69
2023/03/20 02:22:43;;;;;;;39.50;21.40;;;;;;;9.20;100.00;101035.30;108759;1259;72267;-68
2023/03/20 02:25:31;;;;;;;35.80;20.20;;;;;;;9.20;100.00;101042.92;108737;1258;69637;-68
2023/03/20 02:28:17;;;;;;;41.60;21.40;;;;;;;9.23;100.00;101043.86;108756;1258;71448;-69
2023/03/20 02:30:58;;;;;;;38.70;21.20;;;;;;;9.24;100.00;101045.91;108741;1260;60569;-68
2023/03/20 02:33:45;;;;;;;33.20;18.40;;;;;;;9.22;99.86;101051.27;108782;1259;59607;-69
2023/03/20 02:36:14;;;;;;;34.90;18.50;;;;;;;9.23;99.23;101052.16;108737;1259;73464;-68
2023/03/20 02:39:19;;;;;;;30.00;16.40;;;;;;;9.25;97.95;101055.86;108783;1261;70009;-68
2023/03/20 02:42:20;;;;;;;28.00;15.00;;;;;;;9.26;96.80;101054.14;108387;1268;72096;-68
2023/03/20 02:45:03;;;;;;;25.60;14.50;;;;;;;9.27;94.76;101052.45;108706;1263;60205;-68
2023/03/20 02:47:40;;;;;;;25.00;14.00;;;;;;;9.28;92.95;101044.95;108697;1260;60920;-68
2023/03/20 02:50:29;;;;;;;26.70;14.20;;;;;;;9.30;92.45;101033.11;108659;1261;73258;-68
2023/03/20 02:53:07;;;;;;;23.30;13.30;;;;;;;9.35;92.33;101028.34;108713;1263;69008;-68
2023/03/20 02:55:44;;;;;;;25.10;14.10;;;;;;;9.37;91.86;101025.48;108756;1260;71564;-68
2023/03/20 02:58:21;;;;;;;22.70;12.70;;;;;;;9.38;91.03;101028.13;108647;1259;61023;-69
2023/03/20 03:01:15;;;;;;;24.70;13.40;;;;;;;9.40;90.38;101028.33;108801;1261;59081;-69
2023/03/20 03:03:55;;;;;;;23.20;13.40;;;;;;;9.43;90.07;101032.88;108719;1258;75811;-68
2023/03/20 03:06:28;;;;;;;21.50;12.50;;;;;;;9.44;89.81;101029.45;108685;1258;69941;-68
2023/03/20 03:09:02;;;;;;;24.50;12.70;;;;;;;9.46;89.57;101026.73;108626;1261;72521;-68
2023/03/20 03:11:33;;;;;;;23.70;13.30;;;;;;;9.46;89.38;101025.94;108746;1260;62133;-68
2023/03/20 03:14:01;;;;;;;26.60;13.80;;;;;;;9.46;88.98;101027.63;108634;1259;58989;-69
2023/03/20 03:16:32;;;;;;;23.90;12.60;;;;;;;9.44;88.70;101025.43;108738;1260;73182;-68
2023/03/20 03:19:06;;;;;;;21.20;12.70;;;;;;;9.44;88.71;101021.30;108614;1264;69438;-68
2023/03/20 03:21:36;;;;;;;24.80;14.30;;;;;;;9.42;88.53;101018.64;108749;1263;70144;-69
2023/03/20 03:24:03;;;;;;;24.00;13.30;;;;;;;9.39;88.33;101021.70;108641;1258;60199;-68
2023/03/20 03:26:35;;;;;;;21.40;13.30;;;;;;;9.37;88.33;101019.84;108766;1263;60066;-69
2023/03/20 03:29:16;;;;;;;22.00;13.30;;;;;;;9.34;88.10;101012.85;108697;1261;75369;-68
2023/03/20 03:31:44;;;;;;;22.90;12.70;;;;;;;9.31;87.89;101012.34;108749;1263;68649;-69
2023/03/20 03:34:18;;;;;;;24.40;13.40;;;;;;;9.27;87.83;101009.73;108601;1259;72043;-69
2023/03/20 03:36:51;;;;;;;20.60;12.20;;;;;;;9.22;87.84;101010.94;108684;1261;61924;-68
2023/03/20 03:39:47;;;;;;;22.70;12.50;;;;;;;9.19;87.90;101008.25;108643;1261;60072;-68
2023/03/20 03:42:37;;;;;;;21.80;12.80;;;;;;;9.15;88.04;101013.09;108644;1260;74447;-68
2023/03/20 03:45:06;;;;;;;23.80;13.00;;;;;;;9.13;88.12;101015.06;108731;1263;70894;-69
2023/03/20 03:47:54;;;;;;;22.50;12.70;;;;;;;9.10;88.42;101015.88;108645;1260;72075;-68
2023/03/20 03:50:33;;;;;;;23.30;13.30;;;;;;;9.08;88.37;101019.98;108775;1259;61148;-68
2023/03/20 03:53:06;;;;;;;23.30;13.30;;;;;;;9.07;88.31;101018.41;108718;1260;58969;-68
2023/03/20 03:55:40;;;;;;;23.90;13.50;;;;;;;9.04;88.33;101021.27;108680;1259;75127;-69
2023/03/20 03:58:37;;;;;;;25.20;14.00;;;;;;;9.01;88.57;101022.98;108702;1261;71324;-68
2023/03/20 04:01:06;;;;;;;24.80;13.90;;;;;;;8.96;88.51;101019.10;108650;1261;72841;-69
2023/03/20 04:03:38;;;;;;;22.90;13.90;;;;;;;8.93;88.76;101016.21;108648;1261;60929;-69
2023/03/20 04:06:08;;;;;;;25.70;14.80;;;;;;;8.90;88.78;101016.52;108727;1260;58994;-69
2023/03/20 04:08:35;;;;;;;26.60;14.70;;;;;;;8.86;89.17;101022.02;108740;1260;73269;-69
2023/03/20 04:11:02;;;;;;;29.00;15.70;;;;;;;8.82;89.34;101018.06;108622;1264;70885;-69
2023/03/20 04:13:29;;;;;;;28.10;15.70;;;;;;;8.78;90.04;101013.00;108703;1260;71149;-69
2023/03/20 04:15:56;;;;;;;30.00;16.30;;;;;;;8.76;90.61;101019.18;108669;1259;60929;-69
2023/03/20 04:18:23;;;;;;;30.20;16.30;;;;;;;8.75;91.04;101020.02;108624;1260;59096;-68
2023/03/20 04:20:51;;;;;;;30.50;16.70;;;;;;;8.74;91.35;101017.80;108772;1259;75073;-69
2023/03/20 04:23:17;;;;;;;29.50;15.90;;;;;;;8.74;91.53;101022.54;108681;1260;71062;-69
2023/03/20 04:25:44;;;;;;;31.80;16.90;;;;;;;8.75;91.66;101022.08;108617;1260;74275;-69
2023/03/20 04:28:15;;;;;;;28.50;15.30;;;;;;;8.76;92.17;101024.13;108630;1259;61048;-69
2023/03/20 04:30:43;;;;;;;29.30;15.80;;;;;;;8.78;91.98;101023.41;108737;1260;59508;-69
2023/03/20 04:33:10;;;;;;;31.90;16.70;;;;;;;8.79;92.36;101018.49;108687;1260;73543;-69
2023/03/20 04:35:37;;;;;;;28.70;15.20;;;;;;;8.81;92.21;101018.48;108661;1264;69938;-68
2023/03/20 04:38:04;;;;;;;33.70;17.60;;;;;;;8.81;92.51;101018.11;108727;1260;71701;-69
2023/03/20 04:40:31;;;;;;;30.20;16.40;;;;;;;8.80;92.52;101011.92;108746;1260;59773;-69
2023/03/20 04:42:57;;;;;;;30.50;16.90;;;;;;;8.79;92.36;101013.95;108728;1260;59461;-69
2023/03/20 04:45:24;;;;;;;32.30;16.10;;;;;;;8.76;92.85;101011.38;108716;1261;74662;-69
2023/03/20 04:47:51;;;;;;;32.70;16.60;;;;;;;8.75;92.96;101009.77;108755;1259;70271;-69
2023/03/20 04:50:18;;;;;;;34.60;17.20;;;;;;;8.74;93.25;101011.63;108655;1261;71208;-69
2023/03/20 04:52:44;;;;;;;30.00;16.10;;;;;;;8.72;93.18;101011.09;108766;1258;59712;-69
2023/03/20 04:55:11;;;;;;;30.90;16.70;;;;;;;8.72;93.18;101004.94;108772;1257;59123;-69
2023/03/20 04:57:38;;;;;;;32.60;17.00;;;;;;;8.72;93.45;101000.90;108549;1260;74702;-69
2023/03/20 05:00:06;;;;;;;33.70;17.60;;;;;;;8.71;93.12;101003.42;108778;1260;70716;-69
2023/03/20 05:02:32;;;;;;;31.50;16.70;;;;;;;8.71;93.41;101000.66;108754;1259;72663;-69
2023/03/20 05:05:00;;;;;;;30.10;17.10;;;;;;;8.71;93.49;100997.63;108649;1257;60186;-68
2023/03/20 05:07:26;;;;;;;32.80;17.40;;;;;;;8.71;93.29;101002.41;108548;1260;60026;-69
2023/03/20 05:09:53;;;;;;;30.90;16.40;;;;;;;8.73;93.27;101000.48;108736;1259;74418;-69
2023/03/20 05:12:21;;;;;;;34.10;17.20;;;;;;;8.74;93.27;100999.33;108762;1258;70871;-69
2023/03/20 05:14:48;;;;;;;32.30;17.20;;;;;;;8.75;92.83;100995.48;108617;1259;71276;-69
2023/03/20 05:17:17;;;;;;;31.40;16.90;;;;;;;8.77;93.08;100994.58;108598;1260;59087;-69
2023/03/20 05:19:43;;;;;;;29.20;16.40;;;;;;;8.79;92.63;100994.90;108574;1260;60332;-69
2023/03/20 05:22:10;;;;;;;29.50;15.80;;;;;;;8.81;92.58;100990.28;108753;1260;74511;-69
2023/03/20 05:24:37;;;;;;;29.60;15.90;;;;;;;8.84;92.26;100993.38;108750;1260;70960;-69
2023/03/20 05:27:04;;;;;;;27.70;15.00;;;;;;;8.86;92.18;100994.21;108655;1263;72405;-69
2023/03/20 05:29:31;;;;;;;30.90;16.10;;;;;;;8.87;91.91;100991.27;108634;1260;60897;-69
2023/03/20 05:31:58;;;;;;;27.30;16.20;;;;;;;8.89;91.85;100989.30;108744;1257;58899;-72
2023/03/20 05:34:24;;;;;;;27.50;15.10;;;;;;;8.93;91.70;100990.05;108632;1260;74638;-72
2023/03/20 05:36:51;;;;;;;30.20;16.80;;;;;;;8.98;91.20;100986.20;108561;1260;69070;-71
2023/03/20 05:39:18;;;;;;;29.00;15.20;;;;;;;9.05;91.17;100987.70;108659;1260;72458;-71
2023/03/20 05:41:45;;;;;;;29.50;16.50;;;;;;;9.11;91.11;100992.16;108641;1260;61129;-72
2023/03/20 05:44:12;;;;;;;30.00;15.50;;;;;;;9.15;90.82;100997.52;108736;1260;60186;-71
2023/03/20 05:46:39;;;;;;;26.70;15.10;;;;;;;9.20;90.71;100997.27;108641;1259;73146;-72
2023/03/20 05:49:06;;;;;;;27.20;15.80;;;;;;;9.21;90.54;100999.74;108667;1260;69997;-72
2023/03/20 05:51:33;;;;;;;30.00;16.30;;;;;;;9.24;90.45;101004.77;108651;1259;71131;-72
2023/03/20 05:54:00;;;;;;;26.70;14.80;;;;;;;9.26;90.38;101008.58;108748;1259;59667;-72
2023/03/20 05:56:27;;;;;;;28.90;16.20;;;;;;;9.27;90.00;101007.23;108592;1258;59428;-72
2023/03/20 05:58:53;;;;;;;27.30;16.30;;;;;;;9.29;90.11;101006.67;108639;1260;74615;-72
2023/03/20 06:01:20;;;;;;;30.50;15.90;;;;;;;9.32;89.81;101011.19;108760;1259;70129;-72
2023/03/20 06:03:48;;;;;;;26.90;15.80;;;;;;;9.34;89.78;101009.38;108723;1261;72615;-72
2023/03/20 06:06:15;;;;;;;30.20;16.30;;;;;;;9.36;89.63;101011.43;108644;1259;59478;-71
2023/03/20 06:08:42;;;;;;;30.40;16.50;;;;;;;9.37;89.47;101012.90;108652;1259;60065;-72
2023/03/20 06:11:10;;;;;;;30.20;16.40;;;;;;;9.41;89.54;101013.98;108735;1260;74529;-72
2023/03/20 06:13:37;;;;;;;28.30;15.70;;;;;;;9.45;89.23;101015.14;108722;1259;72314;-72
2023/03/20 06:16:04;;;;;;;28.20;16.10;;;;;;;9.47;89.18;101020.22;108744;1259;71732;-72
2023/03/20 06:18:31;;;;;;;28.30;16.20;;;;;;;9.50;89.00;101020.91;108637;1260;60100;-73
2023/03/20 06:20:57;;;;;;;27.30;15.30;;;;;;;9.53;89.03;101018.67;108640;1259;60544;-71
2023/03/20 06:23:24;;;;;;;29.40;17.10;;;;;;;9.53;88.93;101018.15;108618;1258;72814;-72
2023/03/20 06:25:51;;;;;;;28.50;16.20;;;;;;;9.56;88.80;101017.63;108682;1260;69787;-72
2023/03/20 06:28:18;;;;;;;27.40;16.50;;;;;;;9.57;88.77;101019.29;108721;1258;72554;-72
2023/03/20 06:30:46;;;;;;;31.10;16.50;;;;;;;9.58;89.02;101024.23;108731;1260;61610;-72
2023/03/20 06:33:12;;;;;;;29.70;16.60;;;;;;;9.61;89.06;101027.25;108572;1259;59738;-72
2023/03/20 06:35:39;;;;;;;33.00;17.00;;;;;;;9.63;88.95;101032.19;108678;1258;74745;-72
2023/03/20 06:38:06;;;;;;;27.50;16.10;;;;;;;9.62;89.04;101037.58;108656;1258;70152;-72
2023/03/20 06:40:33;;;;;;;29.90;17.20;;;;;;;9.64;88.99;101036.63;108721;1257;72773;-72
2023/03/20 06:43:00;;;;;;;29.30;16.60;;;;;;;9.67;88.73;101039.02;108644;1258;59636;-72
2023/03/20 06:45:27;;;;;;;29.00;17.20;;;;;;;9.66;88.83;101040.88;108705;1258;59181;-72
2023/03/20 06:47:53;;;;;;;29.30;16.70;;;;;;;9.69;88.83;101039.79;108625;1260;74561;-71
2023/03/20 06:50:21;;;;;;;31.90;18.00;;;;;;;9.69;88.69;101044.20;108706;1258;72019;-72
2023/03/20 06:52:48;;;;;;;31.70;18.10;;;;;;;9.72;88.58;101046.07;108672;1260;71309;-72
2023/03/20 06:55:15;;;;;;;29.80;16.70;;;;;;;9.69;87.95;101043.57;108497;1259;61001;-72
2023/03/20 06:57:41;;;;;;;29.50;17.40;;;;;;;9.66;88.02;101047.06;108676;1258;59185;-71
2023/03/20 07:00:09;;;;;;;30.20;17.60;;;;;;;9.65;88.22;101046.83;108558;1257;73568;-72
2023/03/20 07:02:39;;;;;;;32.00;17.70;;;;;;;9.62;88.13;101048.88;108634;1259;71688;-71
2023/03/20 07:05:06;;;;;;;31.50;18.00;;;;;;;9.64;88.16;101045.86;108598;1259;70538;-71
2023/03/20 07:07:33;;;;;;;30.70;17.40;;;;;;;9.66;88.41;101050.73;108689;1258;62535;-71
2023/03/20 07:10:01;;;;;;;27.90;16.30;;;;;;;9.66;88.02;101054.05;108856;1260;58967;-71
2023/03/20 07:12:28;;;;;;;32.80;18.00;;;;;;;9.63;87.89;101054.94;108699;1258;74520;-71
2023/03/20 07:14:55;;;;;;;35.80;19.00;;;;;;;9.60;87.75;101061.08;108796;1260;70877;-72
2023/03/20 07:17:22;;;;;;;30.40;17.10;;;;;;;9.57;87.98;101060.67;108735;1260;72860;-72
2023/03/20 07:19:49;;;;;;;30.40;17.60;;;;;;;9.56;87.88;101064.47;108611;1263;62141;-72
2023/03/20 07:22:24;;;;;;;30.30;17.40;;;;;;;9.55;87.60;101056.39;108731;1258;59222;-72
2023/03/20 07:24:51;;;;;;;28.50;16.70;;;;;;;9.56;86.53;101056.30;108829;1258;74748;-72
2023/03/20 07:27:18;;;;;;;28.70;15.80;;;;;;;9.63;86.28;101056.71;108647;1259;70135;-72
2023/03/20 07:29:45;;;;;;;22.50;13.30;;;;;;;9.66;85.72;101053.90;108727;1260;72567;-72
2023/03/20 07:32:12;;;;;;;23.70;13.70;;;;;;;9.69;85.58;101055.65;108684;1259;63178;-72
2023/03/20 07:34:39;;;;;;;23.60;14.70;;;;;;;9.72;84.88;101051.13;108719;1258;59157;-71
2023/03/20 07:37:06;;;;;;;24.10;14.90;;;;;;;9.76;84.78;101059.36;108706;1258;73217;-72
2023/03/20 07:39:33;;;;;;;21.30;12.70;;;;;;;9.77;84.32;101063.83;108698;1258;70964;-72
2023/03/20 07:42:00;;;;;;;24.90;14.70;;;;;;;9.81;84.46;101067.68;108671;1261;72005;-72
2023/03/20 07:44:26;;;;;;;24.30;14.90;;;;;;;9.87;84.73;101066.38;108654;1258;62041;-72
2023/03/20 07:46:53;;;;;;;24.70;14.80;;;;;;;9.90;83.97;101070.82;108795;1258;59896;-71
2023/03/20 07:49:20;;;;;;;22.70;13.60;;;;;;;9.95;83.68;101075.58;108795;1258;73495;-71
2023/03/20 07:51:50;;;;;;;21.40;12.70;;;;;;;9.95;82.94;101074.52;108700;1258;71327;-72
2023/03/20 07:54:16;;;;;;;21.10;12.20;;;;;;;9.97;82.87;101073.49;108829;1258;71986;-72
2023/03/20 07:56:44;;;;;;;20.30;12.10;;;;;;;9.94;81.77;101075.58;108761;1259;60609;-71
2023/03/20 07:59:11;;;;;;;20.40;12.00;;;;;;;9.96;81.57;101070.58;108779;1258;60409;-72
2023/03/20 08:01:39;;;;;;;19.30;12.10;;;;;;;9.92;81.31;101073.61;108736;1260;73895;-72
2023/03/20 08:04:06;;;;;;;19.80;12.60;;;;;;;9.88;81.44;101075.12;108752;1258;72244;-72
2023/03/20 08:06:33;;;;;;;22.10;13.50;;;;;;;9.93;81.68;101078.13;108643;1260;72422;-72
2023/03/20 08:09:01;;;;;;;19.40;12.40;;;;;;;9.99;81.55;101083.84;108689;1258;60963;-72
2023/03/20 08:11:28;;;;;;;18.30;12.20;;;;;;;10.05;81.21;101081.39;108698;1258;59244;-72
2023/03/20 08:13:56;;;;;;;17.80;11.20;;;;;;;10.15;80.37;101081.02;108712;1258;73655;-71
2023/03/20 08:16:24;;;;;;;16.40;11.50;;;;;;;10.30;79.75;101078.45;108644;1260;70894;-71
2023/03/20 08:18:52;;;;;;;17.30;11.20;;;;;;;10.40;78.88;101080.76;108769;1258;71464;-72
2023/03/20 08:21:18;;;;;;;17.50;11.90;;;;;;;10.49;78.61;101083.52;108785;1258;62038;-72
2023/03/20 08:23:45;;;;;;;16.60;11.10;;;;;;;10.44;77.99;101093.83;108763;1259;59193;-72
2023/03/20 08:26:12;;;;;;;14.40;9.40;;;;;;;10.42;77.68;101089.79;108726;1260;74473;-72
2023/03/20 08:28:39;;;;;;;16.70;10.30;;;;;;;10.39;77.39;101088.10;108854;1258;71413;-71
2023/03/20 08:31:14;;;;;;;15.80;10.10;;;;;;;10.34;77.34;101089.17;108726;1258;71452;-71
2023/03/20 08:33:41;;;;;;;14.40;9.90;;;;;;;10.37;77.47;101083.08;108705;1260;60667;-72
2023/03/20 08:36:08;;;;;;;14.50;9.60;;;;;;;10.43;77.62;101086.84;108582;1258;60058;-71
2023/03/20 08:38:35;;;;;;;15.60;10.50;;;;;;;10.45;77.53;101086.98;108750;1258;73204;-71
2023/03/20 08:41:01;;;;;;;13.80;9.80;;;;;;;10.47;77.32;101091.55;108738;1258;70096;-71
2023/03/20 08:43:28;;;;;;;14.20;10.40;;;;;;;10.46;77.16;101088.05;108762;1258;72381;-71
2023/03/20 08:45:55;;;;;;;14.70;10.20;;;;;;;10.48;77.19;101081.80;108782;1260;60775;-71
2023/03/20 08:48:22;;;;;;;14.90;9.70;;;;;;;10.50;77.26;101093.31;108795;1258;59488;-71
2023/03/20 08:50:49;;;;;;;14.10;9.40;;;;;;;10.44;76.27;101096.79;108861;1259;74111;-71
2023/03/20 08:53:16;;;;;;;13.40;9.30;;;;;;;10.38;76.42;101103.27;108568;1258;70002;-71
2023/03/20 08:55:50;;;;;;;15.90;9.90;;;;;;;10.36;76.31;101103.27;108752;1258;71490;-72
2023/03/20 08:58:19;;;;;;;15.60;10.60;;;;;;;10.34;76.59;101105.98;108716;1258;62053;-71
2023/03/20 09:00:46;;;;;;;15.80;10.10;;;;;;;10.34;76.70;101103.86;108812;1260;59137;-71
2023/03/20 09:03:15;;;;;;;14.60;10.10;;;;;;;10.35;76.63;101107.07;108856;1258;74672;-71
2023/03/20 09:05:51;;;;;;;15.00;9.90;;;;;;;10.37;76.63;101101.81;108738;1259;69774;-71
2023/03/20 09:08:18;;;;;;;14.70;10.00;;;;;;;10.38;76.96;101100.64;108745;1259;72848;-71
2023/03/20 09:10:47;;;;;;;15.70;10.90;;;;;;;10.39;77.03;101102.41;108699;1257;60458;-71
2023/03/20 09:13:17;;;;;;;14.30;10.40;;;;;;;10.39;77.09;101096.91;108712;1258;60401;-71
2023/03/20 09:15:54;;;;;;;14.90;10.30;;;;;;;10.38;76.61;101096.14;108773;1258;74656;-71
2023/03/20 09:18:21;;;;;;;15.70;10.50;;;;;;;10.38;76.99;101103.65;108746;1259;72116;-71
2023/03/20 09:20:48;;;;;;;15.10;9.90;;;;;;;10.41;77.07;101104.54;108823;1258;71754;-71
2023/03/20 09:23:15;;;;;;;14.90;10.00;;;;;;;10.40;77.02;101107.52;108741;1260;61586;-71
2023/03/20 09:25:42;;;;;;;16.80;10.90;;;;;;;10.43;77.17;101108.08;108845;1258;60122;-71
2023/03/20 09:28:10;;;;;;;14.80;10.40;;;;;;;10.45;77.06;101111.87;108833;1258;73803;-71
2023/03/20 09:30:37;;;;;;;12.70;8.80;;;;;;;10.50;76.87;101110.52;108768;1258;70959;-71
2023/03/20 09:33:04;;;;;;;13.30;9.50;;;;;;;10.47;76.36;101109.38;108711;1258;72675;-71
2023/03/20 09:35:31;;;;;;;15.10;10.40;;;;;;;10.47;76.69;101108.86;108787;1258;62057;-71
2023/03/20 09:37:58;;;;;;;15.00;10.00;;;;;;;10.43;76.07;101115.95;108718;1259;60071;-72
2023/03/20 09:40:47;;;;;;;12.90;9.20;;;;;;;10.42;76.15;101116.30;108778;1260;74479;-71
2023/03/20 09:43:51;;;;;;;14.50;10.00;;;;;;;10.34;76.34;101111.41;108835;1258;69972;-70
2023/03/20 09:46:35;;;;;;;14.70;9.90;;;;;;;10.37;76.14;101116.59;108779;1258;72410;-71
2023/03/20 09:49:17;;;;;;;12.80;8.90;;;;;;;10.40;75.62;101109.90;108782;1258;59739;-71
2023/03/20 09:51:57;;;;;;;13.00;9.80;;;;;;;10.46;75.26;101111.73;108742;1258;59230;-71
2023/03/20 09:54:27;;;;;;;13.80;10.20;;;;;;;10.50;74.80;101112.98;108707;1260;74362;-71
2023/03/20 09:56:56;;;;;;;14.00;9.80;;;;;;;10.55;74.30;101117.58;108745;1258;68675;-72
2023/03/20 09:59:26;;;;;;;14.00;9.30;;;;;;;10.55;74.38;101122.10;108678;1258;72553;-72
2023/03/20 10:01:59;;;;;;;12.60;9.40;;;;;;;10.51;74.70;101124.55;108806;1260;60465;-71
2023/03/20 10:04:28;;;;;;;15.50;11.60;;;;;;;10.49;74.77;101127.33;108690;1257;59126;-71
2023/03/20 10:06:58;;;;;;;14.90;10.80;;;;;;;10.46;75.04;101130.04;108594;1264;73858;-71
2023/03/20 10:09:27;;;;;;;14.40;10.60;;;;;;;10.37;75.00;101133.24;108558;1261;70358;-71
2023/03/20 10:12:17;;;;;;;14.70;10.90;;;;;;;10.29;74.96;101126.65;108613;1260;71535;-71
2023/03/20 10:14:46;;;;;;;13.90;10.70;;;;;;;10.31;75.06;101128.02;108737;1258;62100;-72
2023/03/20 10:17:42;;;;;;;14.50;10.10;;;;;;;10.41;75.25;101118.53;108791;1258;59252;-72
2023/03/20 10:20:31;;;;;;;14.10;10.20;;;;;;;10.68;74.16;101118.80;108829;1258;73651;-72
2023/03/20 10:23:15;;;;;;;15.70;10.20;;;;;;;10.85;72.84;101120.17;108768;1260;71309;-72
2023/03/20 10:25:49;;;;;;;14.50;9.90;;;;;;;10.87;72.04;101121.94;108672;1260;73874;-72
2023/03/20 10:28:21;;;;;;;12.50;9.10;;;;;;;10.83;72.13;101121.91;108738;1258;62997;-71
2023/03/20 10:31:15;;;;;;;12.50;9.90;;;;;;;10.86;72.14;101116.73;108719;1258;62025;-71
2023/03/20 10:34:02;;;;;;;14.10;10.50;;;;;;;10.84;71.46;101120.52;108820;1259;74475;-71
2023/03/20 10:36:37;;;;;;;15.40;10.70;;;;;;;10.84;71.55;101115.11;108655;1258;70989;-71
2023/03/20 10:39:25;;;;;;;13.10;9.90;;;;;;;10.80;71.66;101119.11;108751;1259;72395;-71
2023/03/20 10:41:55;;;;;;;14.10;9.40;;;;;;;10.82;71.33;101116.79;108813;1258;60506;-71
2023/03/20 10:44:39;;;;;;;12.10;8.80;;;;;;;10.84;71.20;101120.31;108724;1258;59176;-71
2023/03/20 10:47:10;;;;;;;13.10;8.50;;;;;;;11.00;70.65;101121.86;108736;1258;75773;-72
2023/03/20 10:50:27;;;;;;;9.90;7.60;;;;;;;11.22;69.55;101114.55;108720;1258;70557;-72
2023/03/20 10:52:55;;;;;;;9.90;7.10;;;;;;;11.34;66.68;101111.96;108818;1258;71444;-71
2023/03/20 10:55:42;;;;;;;10.40;6.50;;;;;;;11.37;66.69;101110.15;108754;1258;60796;-72
2023/03/20 10:58:23;;;;;;;6.90;5.50;;;;;;;11.32;65.78;101100.71;108835;1259;59271;-72
2023/03/20 11:00:58;;;;;;;7.50;5.30;;;;;;;11.31;65.96;101103.86;108744;1257;73589;-72
2023/03/20 11:03:27;;;;;;;6.50;4.90;;;;;;;11.33;65.66;101106.28;108678;1259;71197;-71
2023/03/20 11:06:01;;;;;;;8.30;5.10;;;;;;;11.35;65.49;101105.61;108798;1258;72959;-71
2023/03/20 11:08:41;;;;;;;10.50;5.40;;;;;;;11.44;64.54;101099.68;108714;1259;60650;-71
2023/03/20 11:11:08;;;;;;;7.00;5.20;;;;;;;11.68;65.21;101089.39;108675;1258;59318;-71
2023/03/20 11:13:40;;;;;;;7.80;5.20;;;;;;;11.80;63.80;101097.41;108750;1260;74291;-72
2023/03/20 11:16:20;;;;;;;7.10;5.30;;;;;;;11.84;62.77;101091.27;108645;1259;69708;-71
2023/03/20 11:18:48;;;;;;;8.10;4.50;;;;;;;11.88;62.29;101091.81;108657;1258;71616;-72
2023/03/20 11:21:24;;;;;;;6.30;4.40;;;;;;;11.90;61.93;101086.48;108804;1258;59081;-72
2023/03/20 11:23:52;;;;;;;7.00;4.60;;;;;;;11.85;61.47;101088.58;108661;1259;59628;-72
2023/03/20 11:26:34;;;;;;;7.70;4.50;;;;;;;11.74;61.59;101078.88;108622;1257;75132;-72